Time;durP1;ratioP1;P1;durP2;ratioP2;P2;SDS_P1;SDS_P2;PMS_P1;PMS_P2;Temp;Humidity;BMP_temperature;BMP_pressure;BME280_temperature;BME280_humidity;BME280_pressure;Samples;Min_cycle;Max_cycle;Signal;HPM_P1;HPM_P2
2023/12/17 00:01:07;;;;;;;13.80;6.22;;;;;;;;;;6388193;22;19998;-78
2023/12/17 00:03:33;;;;;;;15.60;6.35;;;;;;;;;;6389208;22;20622;-78
2023/12/17 00:05:58;;;;;;;13.40;5.82;;;;;;;;;;6388219;22;20021;-78
2023/12/17 00:08:24;;;;;;;13.80;6.30;;;;;;;;;;6388263;22;20014;-77
2023/12/17 00:10:50;;;;;;;16.02;6.85;;;;;;;;;;6361258;22;20001;-78
2023/12/17 00:13:17;;;;;;;13.32;6.45;;;;;;;;;;6390992;22;20002;-78
2023/12/17 00:15:43;;;;;;;14.05;6.07;;;;;;;;;;6393449;22;20017;-79
2023/12/17 00:18:09;;;;;;;14.82;6.35;;;;;;;;;;6401530;22;20097;-78
2023/12/17 00:20:34;;;;;;;14.85;6.20;;;;;;;;;;6375649;22;20044;-77
2023/12/17 00:23:00;;;;;;;16.50;6.38;;;;;;;;;;6361775;22;20010;-78
2023/12/17 00:25:26;;;;;;;15.02;6.60;;;;;;;;;;6362013;22;20001;-77
2023/12/17 00:27:52;;;;;;;16.73;6.75;;;;;;;;;;6388208;22;20010;-77
2023/12/17 00:30:17;;;;;;;15.88;6.32;;;;;;;;;;6361043;22;20010;-78
2023/12/17 00:32:43;;;;;;;12.35;5.93;;;;;;;;;;6388201;22;20014;-78
2023/12/17 00:35:08;;;;;;;15.93;7.47;;;;;;;;;;6388123;22;20009;-78
2023/12/17 00:37:34;;;;;;;14.23;6.30;;;;;;;;;;6389516;22;20006;-78
2023/12/17 00:39:59;;;;;;;14.00;6.25;;;;;;;;;;6387868;22;20006;-78
2023/12/17 00:42:25;;;;;;;13.90;6.57;;;;;;;;;;6389302;22;20464;-78
2023/12/17 00:44:51;;;;;;;14.75;6.20;;;;;;;;;;6360975;22;20086;-78
2023/12/17 00:47:16;;;;;;;16.02;6.57;;;;;;;;;;6388970;22;20088;-77
2023/12/17 00:49:42;;;;;;;17.55;6.63;;;;;;;;;;6359933;22;20409;-78
2023/12/17 00:52:07;;;;;;;16.60;6.40;;;;;;;;;;6361957;22;20004;-78
2023/12/17 00:54:33;;;;;;;14.40;6.30;;;;;;;;;;6360393;22;20018;-78
2023/12/17 00:56:58;;;;;;;17.02;6.30;;;;;;;;;;6361048;22;20014;-78
2023/12/17 00:59:24;;;;;;;13.80;6.20;;;;;;;;;;6360162;22;20089;-77
2023/12/17 01:01:51;;;;;;;18.42;6.72;;;;;;;;;;6360226;22;20729;-77
2023/12/17 01:04:17;;;;;;;13.20;6.22;;;;;;;;;;6388763;22;19996;-78
2023/12/17 01:06:42;;;;;;;20.65;6.45;;;;;;;;;;6387918;22;20022;-78
2023/12/17 01:09:10;;;;;;;16.77;6.95;;;;;;;;;;6361122;22;20025;-78
2023/12/17 01:11:36;;;;;;;13.15;6.13;;;;;;;;;;6388873;22;20940;-78
2023/12/17 01:14:03;;;;;;;14.98;6.78;;;;;;;;;;6388369;22;20022;-77
2023/12/17 01:16:32;;;;;;;15.55;7.10;;;;;;;;;;6360553;22;20009;-78
2023/12/17 01:18:58;;;;;;;16.52;6.80;;;;;;;;;;6359946;22;20017;-78
2023/12/17 01:21:23;;;;;;;14.68;6.30;;;;;;;;;;6359953;22;20014;-78
2023/12/17 01:23:49;;;;;;;18.10;6.63;;;;;;;;;;6388943;22;20825;-78
2023/12/17 01:26:20;;;;;;;17.27;6.38;;;;;;;;;;6359305;22;20006;-77
2023/12/17 01:28:46;;;;;;;12.80;5.78;;;;;;;;;;6388505;22;19997;-78
2023/12/17 01:31:14;;;;;;;15.93;6.68;;;;;;;;;;6360577;22;20057;-78
2023/12/17 01:33:39;;;;;;;17.20;6.80;;;;;;;;;;6389770;22;20017;-78
2023/12/17 01:36:05;;;;;;;17.88;6.20;;;;;;;;;;6366639;22;20006;-78
2023/12/17 01:38:31;;;;;;;15.65;6.55;;;;;;;;;;6404885;22;20029;-78
2023/12/17 01:40:57;;;;;;;18.00;7.18;;;;;;;;;;6378232;22;19998;-78
2023/12/17 01:43:22;;;;;;;15.32;6.97;;;;;;;;;;6364651;22;20329;-78
2023/12/17 01:45:49;;;;;;;15.82;6.50;;;;;;;;;;6362018;22;20010;-77
2023/12/17 01:48:15;;;;;;;17.48;6.05;;;;;;;;;;6389813;22;20033;-77
2023/12/17 01:50:41;;;;;;;14.00;6.05;;;;;;;;;;6360437;22;20018;-77
2023/12/17 01:53:07;;;;;;;14.10;6.03;;;;;;;;;;6388316;22;20018;-78
2023/12/17 01:55:33;;;;;;;14.55;6.22;;;;;;;;;;6388695;22;19997;-77
2023/12/17 01:57:59;;;;;;;12.27;5.80;;;;;;;;;;6388238;22;20021;-77
2023/12/17 02:00:25;;;;;;;13.32;5.95;;;;;;;;;;6383843;22;20559;-77
2023/12/17 02:02:52;;;;;;;16.50;6.50;;;;;;;;;;6385218;22;20062;-78
2023/12/17 02:05:18;;;;;;;13.90;6.35;;;;;;;;;;6385581;22;20365;-78
2023/12/17 02:07:43;;;;;;;11.70;5.50;;;;;;;;;;6387899;22;20014;-77
2023/12/17 02:10:09;;;;;;;13.48;5.63;;;;;;;;;;6388139;22;19997;-78
2023/12/17 02:12:34;;;;;;;14.45;5.70;;;;;;;;;;6358199;22;20017;-77
2023/12/17 02:15:00;;;;;;;14.82;6.50;;;;;;;;;;6387197;22;20042;-78
2023/12/17 02:17:30;;;;;;;15.23;6.60;;;;;;;;;;6388702;22;20010;-78
2023/12/17 02:19:56;;;;;;;13.13;5.63;;;;;;;;;;6358553;22;19998;-78
2023/12/17 02:22:25;;;;;;;16.23;6.22;;;;;;;;;;6360324;22;19990;-78
2023/12/17 02:24:54;;;;;;;16.92;5.30;;;;;;;;;;6359333;22;20018;-77
2023/12/17 02:27:25;;;;;;;14.38;5.53;;;;;;;;;;6359305;22;20365;-78
2023/12/17 02:29:55;;;;;;;15.93;6.15;;;;;;;;;;6359061;22;20017;-77
2023/12/17 02:32:22;;;;;;;13.85;5.75;;;;;;;;;;6359845;22;20010;-78
2023/12/17 02:34:48;;;;;;;14.93;5.78;;;;;;;;;;6358507;22;20009;-78
2023/12/17 02:37:14;;;;;;;12.75;5.40;;;;;;;;;;6359888;22;20531;-78
2023/12/17 02:39:40;;;;;;;16.77;6.13;;;;;;;;;;6359662;22;20010;-78
2023/12/17 02:42:06;;;;;;;14.48;6.05;;;;;;;;;;6359372;22;20075;-77
2023/12/17 02:44:31;;;;;;;16.48;6.63;;;;;;;;;;6359557;22;20032;-78
2023/12/17 02:46:58;;;;;;;16.17;6.65;;;;;;;;;;6359581;22;20005;-78
2023/12/17 02:49:24;;;;;;;16.55;7.10;;;;;;;;;;6361133;22;20005;-78
2023/12/17 02:51:50;;;;;;;15.88;6.43;;;;;;;;;;6362446;22;20014;-78
2023/12/17 02:54:20;;;;;;;13.73;6.18;;;;;;;;;;6364529;22;20018;-77
2023/12/17 02:56:46;;;;;;;15.27;5.78;;;;;;;;;;6371666;22;20014;-78
2023/12/17 02:59:13;;;;;;;15.32;7.13;;;;;;;;;;6405724;22;20085;-78
2023/12/17 03:01:43;;;;;;;14.85;6.45;;;;;;;;;;6370002;22;20058;-78
2023/12/17 03:04:10;;;;;;;14.82;6.60;;;;;;;;;;6390209;22;20016;-78
2023/12/17 03:06:37;;;;;;;14.32;6.13;;;;;;;;;;6360096;22;20021;-77
2023/12/17 03:09:03;;;;;;;14.20;5.50;;;;;;;;;;6360911;22;20025;-78
2023/12/17 03:11:29;;;;;;;16.38;6.45;;;;;;;;;;6390020;22;20037;-78
2023/12/17 03:13:55;;;;;;;13.75;6.25;;;;;;;;;;6389423;22;20005;-78
2023/12/17 03:16:21;;;;;;;17.30;6.60;;;;;;;;;;6362942;22;20004;-77
2023/12/17 03:18:46;;;;;;;16.23;5.95;;;;;;;;;;6384207;22;20006;-77
2023/12/17 03:21:12;;;;;;;16.70;5.82;;;;;;;;;;6359019;22;20022;-78
2023/12/17 03:23:38;;;;;;;20.13;7.20;;;;;;;;;;6359935;22;20041;-78
2023/12/17 03:26:04;;;;;;;18.05;7.43;;;;;;;;;;6361109;22;20024;-77
2023/12/17 03:28:29;;;;;;;22.92;7.93;;;;;;;;;;6360332;22;20050;-78
2023/12/17 03:30:55;;;;;;;22.80;7.20;;;;;;;;;;6361569;22;20017;-78
2023/12/17 03:33:21;;;;;;;20.30;7.60;;;;;;;;;;6360209;22;20412;-77
2023/12/17 03:35:47;;;;;;;17.55;7.22;;;;;;;;;;6389699;22;20498;-77
2023/12/17 03:38:13;;;;;;;17.80;6.78;;;;;;;;;;6389020;22;20018;-77
2023/12/17 03:40:40;;;;;;;20.10;6.75;;;;;;;;;;6362065;22;20040;-78
2023/12/17 03:43:06;;;;;;;16.60;6.43;;;;;;;;;;6360434;22;20073;-78
2023/12/17 03:45:33;;;;;;;15.52;6.10;;;;;;;;;;6360941;22;20497;-78
2023/12/17 03:47:59;;;;;;;17.58;6.90;;;;;;;;;;6361474;22;20018;-77
2023/12/17 03:50:26;;;;;;;15.43;5.35;;;;;;;;;;6359767;22;20040;-77
2023/12/17 03:52:52;;;;;;;13.40;6.00;;;;;;;;;;6361234;22;20021;-78
2023/12/17 03:55:17;;;;;;;19.95;6.38;;;;;;;;;;6389954;22;20070;-78
2023/12/17 03:57:43;;;;;;;18.40;7.05;;;;;;;;;;6388429;22;20447;-78
2023/12/17 04:00:12;;;;;;;16.15;6.30;;;;;;;;;;6387202;22;20032;-77
2023/12/17 04:02:37;;;;;;;16.98;6.78;;;;;;;;;;6387031;22;20334;-78
2023/12/17 04:05:04;;;;;;;15.27;6.45;;;;;;;;;;6389485;22;20066;-77
2023/12/17 04:07:30;;;;;;;24.67;6.03;;;;;;;;;;6390302;22;20021;-77
2023/12/17 04:10:03;;;;;;;16.30;6.30;;;;;;;;;;6362131;22;20564;-77
2023/12/17 04:12:28;;;;;;;15.48;6.22;;;;;;;;;;6362225;22;20033;-77
2023/12/17 04:14:54;;;;;;;15.52;6.32;;;;;;;;;;6395349;22;20022;-77
2023/12/17 04:17:20;;;;;;;14.23;5.60;;;;;;;;;;6404534;22;20017;-77
2023/12/17 04:19:46;;;;;;;19.75;7.40;;;;;;;;;;6381532;22;20002;-78
2023/12/17 04:22:12;;;;;;;20.33;7.80;;;;;;;;;;6396008;22;20538;-78
2023/12/17 04:24:38;;;;;;;17.45;6.93;;;;;;;;;;6391524;22;20025;-78
2023/12/17 04:27:04;;;;;;;23.67;9.45;;;;;;;;;;6361639;22;20013;-78
2023/12/17 04:29:30;;;;;;;24.05;8.57;;;;;;;;;;6360991;22;20020;-77
2023/12/17 04:31:55;;;;;;;23.40;9.90;;;;;;;;;;6389667;22;20460;-77
2023/12/17 04:34:21;;;;;;;33.60;11.32;;;;;;;;;;6359850;22;20037;-78
2023/12/17 04:36:47;;;;;;;27.90;9.90;;;;;;;;;;6361426;22;20086;-78
2023/12/17 04:39:12;;;;;;;24.48;9.13;;;;;;;;;;6360244;22;20013;-78
2023/12/17 04:41:41;;;;;;;22.30;8.63;;;;;;;;;;6388925;22;20009;-78
2023/12/17 04:44:07;;;;;;;25.52;9.45;;;;;;;;;;6388570;22;20033;-77
2023/12/17 04:46:34;;;;;;;27.67;10.07;;;;;;;;;;6389484;22;20006;-77
2023/12/17 04:48:59;;;;;;;26.23;10.00;;;;;;;;;;6389807;22;20014;-78
2023/12/17 04:51:25;;;;;;;24.02;8.77;;;;;;;;;;6388341;22;20075;-77
2023/12/17 04:53:51;;;;;;;26.63;9.25;;;;;;;;;;6388958;22;20014;-78
2023/12/17 04:56:18;;;;;;;26.10;8.77;;;;;;;;;;6360765;22;20370;-78
2023/12/17 04:58:45;;;;;;;26.63;8.85;;;;;;;;;;6360520;22;20449;-77
2023/12/17 05:01:11;;;;;;;25.05;9.32;;;;;;;;;;6360849;22;20249;-78
2023/12/17 05:03:36;;;;;;;24.13;9.13;;;;;;;;;;6388619;22;20488;-78
2023/12/17 05:06:03;;;;;;;27.92;9.48;;;;;;;;;;6388584;22;20331;-77
2023/12/17 05:08:28;;;;;;;21.02;8.70;;;;;;;;;;6360361;22;20111;-78
2023/12/17 05:10:54;;;;;;;31.17;9.15;;;;;;;;;;6359982;22;20445;-78
2023/12/17 05:13:20;;;;;;;26.98;9.60;;;;;;;;;;6388760;22;20294;-77
2023/12/17 05:15:45;;;;;;;22.15;8.93;;;;;;;;;;6359775;22;20006;-78
2023/12/17 05:18:11;;;;;;;25.13;9.23;;;;;;;;;;6389145;22;20013;-78
2023/12/17 05:20:37;;;;;;;23.90;9.55;;;;;;;;;;6360650;22;20071;-78
2023/12/17 05:23:03;;;;;;;25.88;9.20;;;;;;;;;;6359621;22;20050;-77
2023/12/17 05:25:28;;;;;;;27.95;9.95;;;;;;;;;;6361061;22;20002;-77
2023/12/17 05:27:54;;;;;;;25.80;9.75;;;;;;;;;;6388525;22;20006;-77
2023/12/17 05:30:20;;;;;;;29.42;9.60;;;;;;;;;;6388860;22;20457;-77
2023/12/17 05:32:45;;;;;;;22.73;8.70;;;;;;;;;;6390824;22;20014;-77
2023/12/17 05:35:11;;;;;;;23.60;9.65;;;;;;;;;;6395694;22;20020;-77
2023/12/17 05:37:36;;;;;;;23.25;8.95;;;;;;;;;;6404920;22;19998;-77
2023/12/17 05:40:02;;;;;;;25.20;8.52;;;;;;;;;;6367965;22;20006;-77
2023/12/17 05:42:28;;;;;;;25.67;8.75;;;;;;;;;;6388470;22;20489;-77
2023/12/17 05:44:54;;;;;;;23.45;8.43;;;;;;;;;;6360351;22;20010;-78
2023/12/17 05:47:19;;;;;;;27.75;9.15;;;;;;;;;;6360168;22;20233;-78
2023/12/17 05:49:45;;;;;;;20.02;8.43;;;;;;;;;;6388601;22;20008;-78
2023/12/17 05:52:11;;;;;;;29.42;9.60;;;;;;;;;;6360429;22;20001;-77
2023/12/17 05:54:38;;;;;;;26.88;9.43;;;;;;;;;;6360471;22;20364;-78
2023/12/17 05:57:04;;;;;;;23.77;8.80;;;;;;;;;;6388404;22;20013;-77
2023/12/17 05:59:30;;;;;;;25.98;9.82;;;;;;;;;;6388256;22;20011;-78
2023/12/17 06:01:55;;;;;;;29.40;10.55;;;;;;;;;;6388254;22;20061;-78
2023/12/17 06:04:21;;;;;;;25.23;9.07;;;;;;;;;;6360527;22;20046;-77
2023/12/17 06:06:47;;;;;;;30.45;8.75;;;;;;;;;;6387550;22;20086;-78
2023/12/17 06:09:13;;;;;;;27.20;9.52;;;;;;;;;;6388287;22;20388;-77
2023/12/17 06:11:38;;;;;;;26.02;7.75;;;;;;;;;;6388579;22;20037;-78
2023/12/17 06:14:04;;;;;;;25.83;7.82;;;;;;;;;;6359204;22;20034;-77
2023/12/17 06:16:30;;;;;;;23.52;8.88;;;;;;;;;;6389217;22;20087;-77
2023/12/17 06:18:55;;;;;;;26.10;8.70;;;;;;;;;;6359689;22;20006;-77
2023/12/17 06:21:27;;;;;;;20.65;8.30;;;;;;;;;;6359893;22;20009;-77
2023/12/17 06:23:57;;;;;;;23.77;8.63;;;;;;;;;;6386908;22;20006;-78
2023/12/17 06:26:25;;;;;;;21.92;7.32;;;;;;;;;;6388528;22;20105;-77
2023/12/17 06:28:51;;;;;;;19.23;7.65;;;;;;;;;;6359963;22;20006;-77
2023/12/17 06:31:17;;;;;;;21.33;8.48;;;;;;;;;;6387845;22;20387;-77
2023/12/17 06:33:43;;;;;;;24.95;8.25;;;;;;;;;;6388083;22;20028;-77
2023/12/17 06:36:09;;;;;;;21.42;8.02;;;;;;;;;;6356854;22;20062;-77
2023/12/17 06:38:35;;;;;;;21.95;8.27;;;;;;;;;;6359800;22;20089;-78
2023/12/17 06:41:00;;;;;;;19.55;7.15;;;;;;;;;;6387215;22;20022;-77
2023/12/17 06:43:26;;;;;;;21.25;7.15;;;;;;;;;;6389010;22;19994;-77
2023/12/17 06:45:52;;;;;;;18.20;7.22;;;;;;;;;;6359910;22;20361;-77
2023/12/17 06:48:18;;;;;;;18.88;7.90;;;;;;;;;;6387899;22;20017;-78
2023/12/17 06:50:44;;;;;;;27.55;9.20;;;;;;;;;;6360981;22;20029;-78
2023/12/17 06:53:15;;;;;;;21.20;8.15;;;;;;;;;;6390980;22;20114;-78
2023/12/17 06:55:42;;;;;;;21.98;8.32;;;;;;;;;;6373161;22;20086;-78
2023/12/17 06:58:08;;;;;;;20.80;8.48;;;;;;;;;;6410085;22;20065;-77
2023/12/17 07:00:34;;;;;;;26.13;8.13;;;;;;;;;;6368556;22;20033;-78
2023/12/17 07:03:01;;;;;;;17.50;8.02;;;;;;;;;;6361613;22;20174;-78
2023/12/17 07:05:26;;;;;;;22.55;7.93;;;;;;;;;;6388433;22;20026;-78
2023/12/17 07:07:52;;;;;;;23.05;8.18;;;;;;;;;;6388228;22;20004;-78
2023/12/17 07:10:18;;;;;;;22.20;7.93;;;;;;;;;;6388648;22;20539;-78
2023/12/17 07:12:43;;;;;;;20.20;6.97;;;;;;;;;;6388051;22;20114;-78
2023/12/17 07:15:10;;;;;;;17.55;7.40;;;;;;;;;;6387894;22;20028;-78
2023/12/17 07:17:35;;;;;;;20.95;7.13;;;;;;;;;;6387717;22;20387;-78
2023/12/17 07:20:01;;;;;;;16.67;6.40;;;;;;;;;;6388627;22;20512;-78
2023/12/17 07:22:26;;;;;;;21.88;7.50;;;;;;;;;;6389080;22;20361;-78
2023/12/17 07:24:52;;;;;;;18.13;5.63;;;;;;;;;;6358636;22;20505;-78
2023/12/17 07:27:18;;;;;;;26.33;8.32;;;;;;;;;;6387503;22;20014;-78
2023/12/17 07:29:43;;;;;;;17.67;6.68;;;;;;;;;;6388279;22;20013;-78
2023/12/17 07:32:09;;;;;;;20.10;6.60;;;;;;;;;;6360300;22;20010;-78
2023/12/17 07:34:34;;;;;;;29.90;10.00;;;;;;;;;;6388665;22;20179;-78
2023/12/17 07:37:00;;;;;;;21.08;7.53;;;;;;;;;;6361557;22;20010;-78
2023/12/17 07:39:26;;;;;;;16.85;7.78;;;;;;;;;;6361316;22;20082;-78
2023/12/17 07:41:53;;;;;;;21.95;7.57;;;;;;;;;;6361215;22;20030;-78
2023/12/17 07:44:18;;;;;;;20.67;8.82;;;;;;;;;;6389838;22;20029;-78
2023/12/17 07:46:44;;;;;;;19.35;8.35;;;;;;;;;;6390690;22;20361;-78
2023/12/17 07:49:10;;;;;;;18.90;7.50;;;;;;;;;;6390016;22;20082;-77
2023/12/17 07:51:38;;;;;;;18.45;7.82;;;;;;;;;;6390753;22;20075;-82
2023/12/17 07:54:05;;;;;;;25.48;7.65;;;;;;;;;;6359726;22;20489;-78
2023/12/17 07:56:32;;;;;;;21.65;7.38;;;;;;;;;;6390009;22;20472;-79
2023/12/17 07:58:57;;;;;;;21.67;7.88;;;;;;;;;;6390705;22;20058;-78
2023/12/17 08:01:30;;;;;;;22.88;7.70;;;;;;;;;;6362050;22;20029;-78
2023/12/17 08:03:57;;;;;;;25.63;8.07;;;;;;;;;;6390492;22;20013;-79
2023/12/17 08:06:23;;;;;;;15.65;6.10;;;;;;;;;;6361231;22;20361;-78
2023/12/17 08:08:50;;;;;;;18.80;8.10;;;;;;;;;;6390650;22;20014;-79
2023/12/17 08:11:16;;;;;;;21.80;7.95;;;;;;;;;;6361790;22;20017;-79
2023/12/17 08:13:43;;;;;;;22.90;8.02;;;;;;;;;;6395655;22;20094;-79
2023/12/17 08:16:09;;;;;;;21.73;8.75;;;;;;;;;;6376509;22;20008;-79
2023/12/17 08:18:34;;;;;;;22.35;9.30;;;;;;;;;;6371424;22;20014;-78
2023/12/17 08:21:01;;;;;;;25.10;8.68;;;;;;;;;;6361312;22;20014;-77
2023/12/17 08:23:27;;;;;;;21.13;9.25;;;;;;;;;;6360964;22;20033;-78
2023/12/17 08:25:52;;;;;;;22.33;8.60;;;;;;;;;;6361232;22;20468;-78
2023/12/17 08:28:20;;;;;;;20.20;7.43;;;;;;;;;;6390269;22;20077;-78
2023/12/17 08:30:46;;;;;;;26.65;9.63;;;;;;;;;;6360929;22;20020;-78
2023/12/17 08:33:12;;;;;;;26.70;8.55;;;;;;;;;;6389800;22;20480;-78
2023/12/17 08:35:38;;;;;;;15.07;6.75;;;;;;;;;;6387466;22;20054;-78
2023/12/17 08:38:06;;;;;;;24.35;8.32;;;;;;;;;;6359251;22;20014;-77
2023/12/17 08:40:39;;;;;;;18.85;6.47;;;;;;;;;;6386863;22;20009;-77
2023/12/17 08:43:09;;;;;;;20.33;8.27;;;;;;;;;;6360384;22;20116;-76
2023/12/17 08:45:51;;;;;;;26.08;8.68;;;;;;;;;;6390335;22;20017;-78
2023/12/17 08:48:33;;;;;;;15.90;6.57;;;;;;;;;;6375872;22;20014;-78
2023/12/17 08:51:03;;;;;;;27.15;8.77;;;;;;;;;;6335882;22;20014;-79
2023/12/17 08:53:29;;;;;;;13.48;6.75;;;;;;;;;;6358452;22;20022;-79
2023/12/17 08:55:55;;;;;;;21.05;9.38;;;;;;;;;;6358443;22;20032;-76
2023/12/17 08:58:21;;;;;;;21.23;8.43;;;;;;;;;;6389122;22;20784;-77
2023/12/17 09:00:47;;;;;;;16.38;7.30;;;;;;;;;;6387500;22;20010;-77
2023/12/17 09:03:12;;;;;;;17.75;6.93;;;;;;;;;;6387633;22;20358;-76
2023/12/17 09:05:38;;;;;;;10.57;5.75;;;;;;;;;;6357765;22;20022;-77
2023/12/17 09:08:04;;;;;;;22.70;7.45;;;;;;;;;;6359594;22;20033;-77
2023/12/17 09:10:30;;;;;;;18.23;6.65;;;;;;;;;;6360522;22;20006;-77
2023/12/17 09:12:55;;;;;;;21.58;7.30;;;;;;;;;;6386806;22;20018;-79
2023/12/17 09:15:22;;;;;;;17.52;7.15;;;;;;;;;;6387399;22;20069;-78
2023/12/17 09:17:47;;;;;;;18.67;6.78;;;;;;;;;;6386390;22;20013;-78
2023/12/17 09:20:16;;;;;;;26.30;8.25;;;;;;;;;;6359895;22;20412;-79
2023/12/17 09:22:41;;;;;;;16.38;7.00;;;;;;;;;;6360365;22;20006;-79
2023/12/17 09:25:09;;;;;;;22.45;8.23;;;;;;;;;;6388553;22;20383;-78
2023/12/17 09:27:34;;;;;;;22.13;7.18;;;;;;;;;;6358144;22;20009;-79
2023/12/17 09:30:00;;;;;;;19.20;7.70;;;;;;;;;;6388753;22;20005;-79
2023/12/17 09:32:26;;;;;;;13.82;5.85;;;;;;;;;;6364186;22;20025;-79
2023/12/17 09:34:52;;;;;;;13.85;6.50;;;;;;;;;;6366032;22;20010;-79
2023/12/17 09:37:19;;;;;;;19.48;8.10;;;;;;;;;;6366094;22;20069;-79
2023/12/17 09:39:44;;;;;;;15.02;7.15;;;;;;;;;;6368634;22;20009;-78
2023/12/17 09:42:11;;;;;;;19.77;8.00;;;;;;;;;;6377477;22;20413;-74
2023/12/17 09:44:37;;;;;;;22.65;8.55;;;;;;;;;;6393913;22;20014;-75
2023/12/17 09:47:03;;;;;;;13.25;6.22;;;;;;;;;;6371740;22;20014;-75
2023/12/17 09:49:29;;;;;;;23.95;8.95;;;;;;;;;;6362883;22;20290;-73
2023/12/17 09:52:07;;;;;;;21.27;8.60;;;;;;;;;;6356405;22;20040;-74
2023/12/17 09:54:32;;;;;;;17.88;6.88;;;;;;;;;;6384742;22;20021;-74
2023/12/17 09:56:58;;;;;;;22.50;7.75;;;;;;;;;;6359053;22;20032;-74
2023/12/17 09:59:24;;;;;;;19.52;6.55;;;;;;;;;;6356873;22;20085;-73
2023/12/17 10:01:51;;;;;;;17.23;7.40;;;;;;;;;;6358302;22;20025;-75
2023/12/17 10:04:24;;;;;;;15.82;7.15;;;;;;;;;;6359145;22;20009;-75
2023/12/17 10:06:50;;;;;;;17.57;7.30;;;;;;;;;;6359232;22;20029;-74
2023/12/17 10:09:15;;;;;;;18.42;6.53;;;;;;;;;;6355143;22;20265;-75
2023/12/17 10:11:41;;;;;;;12.93;5.57;;;;;;;;;;6388893;22;20341;-75
2023/12/17 10:14:51;;;;;;;15.63;6.20;;;;;;;;;;6377037;22;20055;-75
2023/12/17 10:17:18;;;;;;;23.05;7.13;;;;;;;;;;6366801;22;20006;-76
2023/12/17 10:19:50;;;;;;;20.30;5.85;;;;;;;;;;6359313;22;19998;-76
2023/12/17 10:22:16;;;;;;;19.33;6.43;;;;;;;;;;6358855;22;20036;-75
2023/12/17 10:24:42;;;;;;;19.02;5.97;;;;;;;;;;6387045;22;20374;-75
2023/12/17 10:27:22;;;;;;;14.30;6.38;;;;;;;;;;6384988;22;20010;-75
2023/12/17 10:29:52;;;;;;;14.27;5.65;;;;;;;;;;6359433;22;20014;-75
2023/12/17 10:32:24;;;;;;;19.83;5.38;;;;;;;;;;6358614;22;20018;-74
2023/12/17 10:34:50;;;;;;;14.20;4.85;;;;;;;;;;6385533;22;20445;-76
2023/12/17 10:37:20;;;;;;;18.98;6.70;;;;;;;;;;6359733;22;20006;-75
2023/12/17 10:39:50;;;;;;;11.40;5.68;;;;;;;;;;6357784;22;20086;-76
2023/12/17 10:42:19;;;;;;;15.90;5.18;;;;;;;;;;6386934;22;20480;-75
2023/12/17 10:44:49;;;;;;;12.07;5.20;;;;;;;;;;6358567;22;20025;-75
2023/12/17 10:47:21;;;;;;;18.05;6.07;;;;;;;;;;6388591;22;20049;-76
2023/12/17 10:49:46;;;;;;;11.93;5.53;;;;;;;;;;6388283;22;20024;-75
2023/12/17 10:52:12;;;;;;;14.38;5.88;;;;;;;;;;6399337;22;20017;-75
2023/12/17 10:54:40;;;;;;;19.33;6.25;;;;;;;;;;6380023;22;20010;-75
2023/12/17 10:57:10;;;;;;;15.38;5.93;;;;;;;;;;6398482;22;20010;-75
2023/12/17 10:59:37;;;;;;;15.82;5.57;;;;;;;;;;6361908;22;20089;-75
2023/12/17 11:02:05;;;;;;;13.55;5.38;;;;;;;;;;6385682;22;20009;-75
2023/12/17 11:04:31;;;;;;;8.23;3.60;;;;;;;;;;6360989;22;20009;-75
2023/12/17 11:06:57;;;;;;;14.23;6.00;;;;;;;;;;6386407;22;20030;-74
2023/12/17 11:09:24;;;;;;;12.30;5.32;;;;;;;;;;6387599;22;20024;-75
2023/12/17 11:11:51;;;;;;;19.73;6.30;;;;;;;;;;6388850;22;20088;-75
2023/12/17 11:14:17;;;;;;;19.55;5.35;;;;;;;;;;6360466;22;20026;-75
2023/12/17 11:16:42;;;;;;;11.38;4.50;;;;;;;;;;6388925;22;20002;-74
2023/12/17 11:19:11;;;;;;;8.82;4.32;;;;;;;;;;6361771;22;20006;-75
2023/12/17 11:21:37;;;;;;;12.00;4.32;;;;;;;;;;6389621;22;20006;-75
2023/12/17 11:24:05;;;;;;;12.60;5.65;;;;;;;;;;6388737;22;20942;-75
2023/12/17 11:26:40;;;;;;;16.02;4.55;;;;;;;;;;6389028;22;20533;-75
2023/12/17 11:29:31;;;;;;;10.68;4.65;;;;;;;;;;6388262;22;20508;-75
2023/12/17 11:31:58;;;;;;;11.23;4.40;;;;;;;;;;6360872;22;20085;-75
2023/12/17 11:34:23;;;;;;;13.43;4.88;;;;;;;;;;6358348;22;20092;-75
2023/12/17 11:36:50;;;;;;;15.13;5.07;;;;;;;;;;6387433;22;20039;-75
2023/12/17 11:39:15;;;;;;;12.98;5.07;;;;;;;;;;6389411;22;20680;-75
2023/12/17 11:41:41;;;;;;;11.98;4.90;;;;;;;;;;6387718;22;20083;-75
2023/12/17 11:44:06;;;;;;;20.13;6.82;;;;;;;;;;6388343;22;20408;-76
2023/12/17 11:46:32;;;;;;;11.80;6.22;;;;;;;;;;6389331;22;19998;-75
2023/12/17 11:48:58;;;;;;;16.20;5.78;;;;;;;;;;6388806;22;20670;-75
2023/12/17 11:51:25;;;;;;;17.10;5.40;;;;;;;;;;6360663;22;20059;-76
2023/12/17 11:53:52;;;;;;;18.25;4.88;;;;;;;;;;6360800;22;20046;-75
2023/12/17 11:56:30;;;;;;;19.10;5.80;;;;;;;;;;6389433;22;20014;-75
2023/12/17 11:58:56;;;;;;;15.63;6.35;;;;;;;;;;6361152;22;19998;-75
2023/12/17 12:01:22;;;;;;;13.25;5.38;;;;;;;;;;6386699;22;20029;-75
2023/12/17 12:03:47;;;;;;;18.67;6.35;;;;;;;;;;6357319;22;20006;-75
2023/12/17 12:06:16;;;;;;;20.75;5.82;;;;;;;;;;6385624;22;20037;-76
2023/12/17 12:08:45;;;;;;;17.02;5.72;;;;;;;;;;6360910;22;20016;-75
2023/12/17 12:11:16;;;;;;;17.02;6.13;;;;;;;;;;6398014;22;20081;-76
2023/12/17 12:13:48;;;;;;;15.93;5.38;;;;;;;;;;6374434;22;20065;-76
2023/12/17 12:16:14;;;;;;;23.30;6.47;;;;;;;;;;6363528;22;20014;-76
2023/12/17 12:18:43;;;;;;;15.50;5.63;;;;;;;;;;6388846;22;20013;-76
2023/12/17 12:21:24;;;;;;;14.45;5.47;;;;;;;;;;6388679;22;20014;-75
2023/12/17 12:23:54;;;;;;;12.00;4.35;;;;;;;;;;6381967;22;20090;-75
2023/12/17 12:26:21;;;;;;;11.52;5.03;;;;;;;;;;6386664;22;20140;-76
2023/12/17 12:28:57;;;;;;;13.63;4.97;;;;;;;;;;6387143;22;20013;-76
2023/12/17 12:31:23;;;;;;;10.60;4.65;;;;;;;;;;6360554;22;20062;-75
2023/12/17 12:33:54;;;;;;;12.73;5.68;;;;;;;;;;6359639;22;20528;-75
2023/12/17 12:36:20;;;;;;;10.98;4.60;;;;;;;;;;6387621;22;20487;-75
2023/12/17 12:38:57;;;;;;;12.98;4.13;;;;;;;;;;6357812;22;20084;-75
2023/12/17 12:41:23;;;;;;;10.35;3.80;;;;;;;;;;6386326;22;20024;-75
2023/12/17 12:43:52;;;;;;;11.05;4.28;;;;;;;;;;6387002;22;20073;-75
2023/12/17 12:46:18;;;;;;;13.38;4.93;;;;;;;;;;6389157;22;20065;-75
2023/12/17 12:48:43;;;;;;;10.50;4.68;;;;;;;;;;6359745;22;20040;-75
2023/12/17 12:51:11;;;;;;;12.80;4.60;;;;;;;;;;6359638;22;20010;-75
2023/12/17 12:53:37;;;;;;;14.65;4.95;;;;;;;;;;6399146;22;20017;-76
2023/12/17 12:56:03;;;;;;;13.63;4.95;;;;;;;;;;6387748;22;20014;-75
2023/12/17 12:58:33;;;;;;;16.25;4.90;;;;;;;;;;6421428;22;19994;-75
2023/12/17 13:01:02;;;;;;;10.52;4.28;;;;;;;;;;6394102;22;20016;-74
2023/12/17 13:03:32;;;;;;;13.80;4.72;;;;;;;;;;6389808;22;20126;-76
2023/12/17 13:05:59;;;;;;;12.55;4.57;;;;;;;;;;6381418;22;20018;-75
2023/12/17 13:08:25;;;;;;;10.23;3.85;;;;;;;;;;6382340;22;20020;-75
2023/12/17 13:10:53;;;;;;;14.48;4.63;;;;;;;;;;6383610;22;20012;-75
2023/12/17 13:13:29;;;;;;;15.18;5.88;;;;;;;;;;6385735;22;20394;-75
2023/12/17 13:15:55;;;;;;;13.20;4.78;;;;;;;;;;6378432;22;20040;-74
2023/12/17 13:18:27;;;;;;;17.83;6.00;;;;;;;;;;6384194;22;20018;-74
2023/12/17 13:20:55;;;;;;;11.20;4.70;;;;;;;;;;6369832;22;20036;-75
2023/12/17 13:23:23;;;;;;;13.20;4.88;;;;;;;;;;6382231;22;20013;-74
2023/12/17 13:25:55;;;;;;;11.52;4.75;;;;;;;;;;6381998;22;19994;-75
2023/12/17 13:28:25;;;;;;;11.32;4.30;;;;;;;;;;6376361;22;20083;-75
2023/12/17 13:30:54;;;;;;;10.13;4.10;;;;;;;;;;6379788;22;20042;-75
2023/12/17 13:33:20;;;;;;;12.77;4.18;;;;;;;;;;6383160;22;20009;-75
2023/12/17 13:36:13;;;;;;;10.30;4.40;;;;;;;;;;6379450;22;20413;-75
2023/12/17 13:38:39;;;;;;;10.02;3.58;;;;;;;;;;6384412;22;20019;-75
2023/12/17 13:41:06;;;;;;;12.35;5.10;;;;;;;;;;6386273;22;20014;-75
2023/12/17 13:43:35;;;;;;;11.80;4.43;;;;;;;;;;6385262;22;20005;-74
2023/12/17 13:46:01;;;;;;;11.35;4.38;;;;;;;;;;6383593;22;20081;-75
2023/12/17 13:48:27;;;;;;;11.75;4.90;;;;;;;;;;6385092;22;20014;-74
2023/12/17 13:51:00;;;;;;;11.60;4.60;;;;;;;;;;6381241;22;20018;-73
2023/12/17 13:53:26;;;;;;;12.05;4.32;;;;;;;;;;6405654;22;20050;-75
2023/12/17 13:55:57;;;;;;;13.10;5.00;;;;;;;;;;6378936;22;20683;-75
2023/12/17 13:58:24;;;;;;;15.88;5.47;;;;;;;;;;6378606;22;20008;-75
2023/12/17 14:00:52;;;;;;;11.57;4.90;;;;;;;;;;6391306;22;20023;-75
2023/12/17 14:03:24;;;;;;;14.80;5.10;;;;;;;;;;6383348;22;20014;-75
2023/12/17 14:05:50;;;;;;;13.10;4.85;;;;;;;;;;6374093;22;20026;-74
2023/12/17 14:08:16;;;;;;;12.02;4.43;;;;;;;;;;6352858;22;20018;-74
2023/12/17 14:10:42;;;;;;;10.02;4.97;;;;;;;;;;6354548;22;20033;-74
2023/12/17 14:13:09;;;;;;;12.48;4.85;;;;;;;;;;6349580;22;20485;-75
2023/12/17 14:15:40;;;;;;;10.43;4.75;;;;;;;;;;6347302;22;20011;-74
2023/12/17 14:18:06;;;;;;;11.55;4.82;;;;;;;;;;6347416;22;20015;-74
2023/12/17 14:20:34;;;;;;;12.88;5.25;;;;;;;;;;6348143;22;20019;-73
2023/12/17 14:23:12;;;;;;;9.10;4.75;;;;;;;;;;6350844;22;20002;-75
2023/12/17 14:25:38;;;;;;;12.55;4.97;;;;;;;;;;6354115;22;20028;-75
2023/12/17 14:28:06;;;;;;;13.57;5.20;;;;;;;;;;6354813;22;20422;-75
2023/12/17 14:30:33;;;;;;;8.30;4.20;;;;;;;;;;6348237;22;20394;-74